Time;durP1;ratioP1;P1;durP2;ratioP2;P2;SDS_P1;SDS_P2;PMS_P1;PMS_P2;Temp;Humidity;BMP_temperature;BMP_pressure;BME280_temperature;BME280_humidity;BME280_pressure;Samples;Min_cycle;Max_cycle;Signal;HPM_P1;HPM_P2
2023/01/06 00:00:39;;;;;;;54.50;24.00;;;9.40;99.90;;;;;;5043688;28;20651;-46
2023/01/06 00:03:06;;;;;;;56.42;22.98;;;9.50;99.90;;;;;;5045435;28;20040;-47
2023/01/06 00:05:32;;;;;;;62.60;23.55;;;9.50;99.90;;;;;;5045770;28;20044;-45
2023/01/06 00:07:58;;;;;;;61.00;24.23;;;9.50;99.90;;;;;;5045877;28;20055;-46
2023/01/06 00:10:24;;;;;;;66.93;24.23;;;9.50;99.90;;;;;;5043900;28;20048;-45
2023/01/06 00:12:50;;;;;;;68.43;25.40;;;9.50;99.90;;;;;;5046089;28;20067;-46
2023/01/06 00:15:17;;;;;;;66.47;24.42;;;9.40;99.90;;;;;;5045951;28;20120;-47
2023/01/06 00:17:43;;;;;;;74.97;25.83;;;9.50;99.90;;;;;;5046081;28;20045;-46
2023/01/06 00:20:10;;;;;;;61.67;25.10;;;9.40;99.90;;;;;;5048818;28;20044;-45
2023/01/06 00:22:37;;;;;;;72.13;25.95;;;9.50;99.90;;;;;;5049894;28;20045;-47
2023/01/06 00:25:03;;;;;;;73.40;27.90;;;9.40;99.90;;;;;;5049956;28;20040;-45
2023/01/06 00:27:30;;;;;;;66.07;24.60;;;9.50;99.90;;;;;;5050040;28;20119;-46
2023/01/06 00:29:56;;;;;;;60.72;24.27;;;9.50;99.90;;;;;;5050194;28;20399;-46
2023/01/06 00:32:22;;;;;;;67.50;24.30;;;9.40;99.90;;;;;;5049761;28;20051;-46
2023/01/06 00:34:47;;;;;;;59.17;24.42;;;9.60;99.90;;;;;;5049220;28;20091;-45
2023/01/06 00:37:13;;;;;;;58.22;24.55;;;9.50;99.90;;;;;;5049663;28;20757;-48
2023/01/06 00:39:38;;;;;;;66.15;25.40;;;9.50;99.90;;;;;;5049645;28;20405;-48
2023/01/06 00:42:05;;;;;;;62.22;25.42;;;9.50;99.90;;;;;;5049556;28;20106;-46
2023/01/06 00:44:33;;;;;;;67.30;26.30;;;9.50;99.90;;;;;;5049560;28;20040;-46
2023/01/06 00:46:58;;;;;;;64.28;25.58;;;9.50;99.90;;;;;;5049675;28;20045;-46
2023/01/06 00:49:24;;;;;;;66.15;26.23;;;9.50;99.90;;;;;;5049656;28;20048;-45
2023/01/06 00:51:50;;;;;;;65.43;25.92;;;9.50;99.90;;;;;;5049953;28;20063;-44
2023/01/06 00:54:16;;;;;;;54.75;23.38;;;9.50;99.90;;;;;;5049243;28;20040;-46
2023/01/06 00:56:47;;;;;;;60.80;25.17;;;9.50;99.90;;;;;;5049119;28;20071;-45
2023/01/06 00:59:14;;;;;;;52.58;22.77;;;9.50;99.90;;;;;;5048910;28;20053;-46
2023/01/06 01:01:42;;;;;;;48.38;22.52;;;9.50;99.90;;;;;;5049018;28;20045;-46
2023/01/06 01:04:08;;;;;;;47.95;24.13;;;9.50;99.90;;;;;;5048602;28;20072;-46
2023/01/06 01:06:35;;;;;;;50.97;22.17;;;9.50;99.90;;;;;;5049017;28;20055;-46
2023/01/06 01:09:02;;;;;;;48.35;22.35;;;9.40;99.90;;;;;;5049095;28;20118;-47
2023/01/06 01:14:14;;;;;;;42.28;20.13;;;9.60;99.90;;;;;;5063983;28;20138;-46
2023/01/06 01:16:40;;;;;;;50.85;20.65;;;9.60;99.90;;;;;;5048848;28;20049;-46
2023/01/06 01:19:06;;;;;;;40.58;19.52;;;9.60;99.90;;;;;;5048582;28;20422;-47
2023/01/06 01:21:32;;;;;;;44.13;19.73;;;9.90;99.90;;;;;;5048685;28;20037;-45
2023/01/06 01:23:58;;;;;;;42.42;18.40;;;9.60;99.90;;;;;;5048880;28;20052;-46
2023/01/06 01:26:24;;;;;;;32.15;15.05;;;9.60;99.90;;;;;;5048326;28;20668;-47
2023/01/06 01:28:50;;;;;;;33.72;15.25;;;9.70;99.90;;;;;;5048402;28;20045;-45
2023/01/06 01:31:15;;;;;;;28.88;16.00;;;9.80;99.90;;;;;;5047079;28;20052;-46
2023/01/06 01:33:42;;;;;;;34.03;14.85;;;9.60;99.90;;;;;;5048513;28;20056;-45
2023/01/06 01:36:09;;;;;;;25.77;13.15;;;9.40;99.90;;;;;;5047771;28;20549;-45
2023/01/06 01:38:35;;;;;;;30.30;15.27;;;10.10;99.90;;;;;;5048024;28;20056;-45
2023/01/06 01:41:01;;;;;;;25.02;14.07;;;9.70;99.90;;;;;;5048401;28;20044;-45
2023/01/06 01:44:24;;;;;;;26.65;13.45;;;9.40;99.90;;;;;;5048016;28;20044;-46
2023/01/06 01:46:50;;;;;;;25.88;12.60;;;9.50;99.90;;;;;;4985850;28;20149;-45
2023/01/06 01:49:19;;;;;;;26.80;13.50;;;9.50;99.90;;;;;;4985898;28;20042;-45
2023/01/06 01:51:47;;;;;;;24.27;12.85;;;9.50;99.90;;;;;;5024138;28;20411;-46
2023/01/06 01:54:26;;;;;;;23.92;11.88;;;9.50;99.90;;;;;;5048179;28;20106;-46
2023/01/06 01:56:58;;;;;;;28.13;12.93;;;9.50;99.90;;;;;;5048089;28;20044;-45
2023/01/06 01:59:28;;;;;;;28.23;12.68;;;9.50;99.90;;;;;;5047308;28;20057;-44
2023/01/06 02:01:54;;;;;;;22.40;12.15;;;9.40;99.90;;;;;;5047905;28;20457;-45
2023/01/06 02:04:23;;;;;;;22.98;12.13;;;9.50;99.90;;;;;;5046189;28;20381;-45
2023/01/06 02:06:49;;;;;;;22.35;12.63;;;9.70;99.90;;;;;;5048231;28;20045;-46
2023/01/06 02:09:18;;;;;;;22.27;12.68;;;9.50;99.90;;;;;;5047791;28;20080;-45
2023/01/06 02:11:46;;;;;;;24.35;13.35;;;9.40;99.90;;;;;;5048035;28;20037;-44
2023/01/06 02:14:16;;;;;;;24.20;11.70;;;9.50;99.90;;;;;;5048110;28;20099;-45
2023/01/06 02:17:04;;;;;;;24.15;11.57;;;9.30;99.90;;;;;;5047339;28;20128;-44
2023/01/06 02:19:55;;;;;;;20.60;11.55;;;9.40;99.90;;;;;;5048017;28;20138;-45
2023/01/06 02:22:58;;;;;;;24.58;12.98;;;9.40;99.90;;;;;;5048203;28;20091;-45
2023/01/06 02:25:42;;;;;;;21.27;11.00;;;9.40;99.90;;;;;;5047401;28;20378;-46
2023/01/06 02:28:33;;;;;;;19.35;9.82;;;9.40;99.90;;;;;;5047758;28;20154;-49
2023/01/06 02:31:17;;;;;;;20.98;10.60;;;9.40;99.90;;;;;;5047350;28;20402;-45
2023/01/06 02:33:53;;;;;;;19.63;10.07;;;9.40;99.90;;;;;;5047454;28;20041;-47
2023/01/06 02:36:35;;;;;;;20.75;10.23;;;9.40;99.90;;;;;;5047357;28;20052;-46
2023/01/06 02:39:17;;;;;;;19.65;10.43;;;9.40;99.90;;;;;;5047842;28;20505;-47
2023/01/06 02:42:18;;;;;;;20.58;9.82;;;9.40;99.90;;;;;;5046993;28;20043;-47
2023/01/06 02:44:46;;;;;;;19.88;10.63;;;9.40;99.90;;;;;;5046866;28;20302;-48
2023/01/06 02:47:41;;;;;;;20.65;10.43;;;9.30;99.90;;;;;;5047172;28;20037;-46
2023/01/06 02:50:22;;;;;;;17.17;10.70;;;9.30;99.90;;;;;;5043547;28;20494;-46
2023/01/06 02:52:54;;;;;;;24.25;10.70;;;9.30;99.90;;;;;;5046752;28;20131;-47
2023/01/06 02:55:34;;;;;;;20.90;11.32;;;9.30;99.90;;;;;;5046730;28;20928;-45
2023/01/06 02:58:18;;;;;;;19.48;10.75;;;9.50;99.90;;;;;;5046802;28;20049;-46
2023/01/06 03:00:56;;;;;;;19.70;10.57;;;9.30;99.90;;;;;;5046209;28;20110;-46
2023/01/06 03:03:25;;;;;;;15.48;11.30;;;9.30;99.90;;;;;;5047189;28;20044;-47
2023/01/06 03:05:56;;;;;;;18.52;10.57;;;9.60;99.90;;;;;;5046193;28;20473;-47
2023/01/06 03:08:27;;;;;;;21.25;10.27;;;9.30;99.90;;;;;;5047105;28;20117;-46
2023/01/06 03:10:54;;;;;;;15.38;9.85;;;9.30;99.90;;;;;;5045451;28;20118;-46
2023/01/06 03:13:45;;;;;;;16.60;9.02;;;9.30;99.90;;;;;;5046797;28;20059;-46
2023/01/06 03:16:11;;;;;;;17.85;9.50;;;9.30;99.90;;;;;;5046570;28;20399;-47
2023/01/06 03:18:39;;;;;;;13.93;8.57;;;9.20;99.90;;;;;;5045065;28;20033;-45
2023/01/06 03:21:08;;;;;;;16.42;8.57;;;9.30;99.90;;;;;;5046756;28;20064;-46
2023/01/06 03:23:37;;;;;;;16.23;7.97;;;9.30;99.90;;;;;;5047045;28;20044;-45
2023/01/06 03:26:03;;;;;;;21.67;9.20;;;9.30;99.90;;;;;;5046886;28;20055;-45
2023/01/06 03:28:29;;;;;;;15.18;8.20;;;9.30;99.90;;;;;;5047116;28;20116;-48
2023/01/06 03:31:06;;;;;;;18.08;7.78;;;9.30;99.90;;;;;;5047216;28;20439;-46
2023/01/06 03:33:51;;;;;;;14.13;7.50;;;9.30;99.90;;;;;;5046892;28;20776;-48
2023/01/06 03:36:46;;;;;;;13.95;7.30;;;9.30;99.90;;;;;;5046633;28;20072;-47
2023/01/06 03:39:31;;;;;;;14.80;6.80;;;9.30;99.90;;;;;;5046419;28;20049;-46
2023/01/06 03:45:05;;;;;;;11.70;6.45;;;9.20;99.90;;;;;;5046317;28;20059;-45
2023/01/06 03:47:45;;;;;;;11.57;7.45;;;9.20;99.90;;;;;;5046549;28;20093;-46
2023/01/06 03:50:23;;;;;;;13.13;7.07;;;9.30;99.90;;;;;;5046099;28;20586;-46
2023/01/06 03:53:23;;;;;;;10.50;7.35;;;9.30;99.90;;;;;;5046103;28;20068;-45
2023/01/06 03:55:57;;;;;;;10.48;7.40;;;9.50;99.90;;;;;;5039304;28;20041;-45
2023/01/06 03:58:25;;;;;;;10.65;7.32;;;9.30;99.90;;;;;;5050605;28;20048;-46
2023/01/06 04:00:51;;;;;;;14.90;7.05;;;9.30;99.90;;;;;;5049957;28;20071;-47
2023/01/06 04:03:17;;;;;;;16.00;8.25;;;9.20;99.90;;;;;;5050058;28;20080;-45
2023/01/06 04:05:42;;;;;;;10.85;8.25;;;9.20;99.90;;;;;;5049861;28;20156;-45
2023/01/06 04:08:08;;;;;;;15.40;8.35;;;9.30;99.90;;;;;;5050079;28;20045;-47
2023/01/06 04:10:33;;;;;;;14.65;9.00;;;9.30;99.90;;;;;;5050301;28;20047;-45
2023/01/06 04:12:59;;;;;;;11.98;8.82;;;9.10;99.90;;;;;;5050002;28;20541;-47
2023/01/06 04:15:28;;;;;;;13.65;9.45;;;9.20;99.90;;;;;;5050121;28;20469;-45
2023/01/06 04:17:54;;;;;;;12.57;9.38;;;9.20;99.90;;;;;;5049631;28;20103;-45
2023/01/06 04:20:25;;;;;;;15.23;10.40;;;9.30;99.90;;;;;;5050080;28;20041;-45
2023/01/06 04:22:53;;;;;;;14.57;10.68;;;9.30;99.90;;;;;;5049725;28;20041;-45
2023/01/06 04:25:19;;;;;;;15.60;9.55;;;9.20;99.90;;;;;;5049966;28;20098;-45
2023/01/06 04:27:44;;;;;;;16.33;10.90;;;9.10;99.90;;;;;;5049747;28;20120;-46
2023/01/06 04:30:11;;;;;;;14.40;11.23;;;9.10;99.90;;;;;;5049539;28;20642;-46
2023/01/06 04:32:36;;;;;;;13.48;10.25;;;9.10;99.90;;;;;;5049849;28;20051;-47
2023/01/06 04:35:02;;;;;;;13.73;10.43;;;9.30;99.90;;;;;;5048826;28;20037;-45
2023/01/06 04:37:28;;;;;;;17.40;11.02;;;9.10;99.90;;;;;;5049283;28;20380;-45
2023/01/06 04:39:54;;;;;;;16.02;10.80;;;9.10;99.90;;;;;;5049242;28;20055;-45
2023/01/06 04:42:19;;;;;;;17.20;12.40;;;9.10;99.90;;;;;;5049438;28;20226;-47
2023/01/06 04:44:45;;;;;;;15.68;11.88;;;9.10;99.90;;;;;;5049252;28;20048;-45
2023/01/06 04:47:11;;;;;;;15.68;12.07;;;9.10;99.90;;;;;;5049467;28;20096;-45
2023/01/06 04:49:36;;;;;;;16.23;12.18;;;9.30;99.90;;;;;;5049400;28;20507;-49
2023/01/06 04:52:03;;;;;;;17.13;12.30;;;9.10;99.90;;;;;;5048913;28;20055;-45
2023/01/06 04:54:28;;;;;;;15.60;11.27;;;9.20;99.90;;;;;;5049080;28;20403;-45
2023/01/06 04:56:54;;;;;;;14.82;11.90;;;9.20;99.90;;;;;;5049059;28;20053;-48
2023/01/06 04:59:20;;;;;;;14.77;12.32;;;9.20;99.90;;;;;;5049075;28;20136;-47
2023/01/06 05:01:45;;;;;;;18.23;12.10;;;9.10;99.90;;;;;;5048989;28;20395;-47
2023/01/06 05:04:11;;;;;;;16.55;12.02;;;9.20;99.90;;;;;;5048664;28;20037;-47
2023/01/06 05:06:38;;;;;;;15.80;10.88;;;9.20;99.90;;;;;;5049240;28;20044;-44
2023/01/06 05:09:04;;;;;;;19.30;11.75;;;9.20;99.90;;;;;;5048976;28;20544;-44
2023/01/06 05:11:30;;;;;;;15.10;12.10;;;9.20;99.90;;;;;;5049235;28;20083;-47
2023/01/06 05:13:57;;;;;;;21.60;12.75;;;9.00;99.90;;;;;;5049230;28;20415;-45
2023/01/06 05:16:28;;;;;;;14.98;11.77;;;9.10;99.90;;;;;;5049184;28;20049;-46
2023/01/06 05:18:54;;;;;;;18.57;12.03;;;9.10;99.90;;;;;;5047977;28;20048;-46
2023/01/06 05:21:21;;;;;;;15.05;11.50;;;9.10;99.90;;;;;;5048791;28;20355;-45
2023/01/06 05:23:47;;;;;;;14.48;11.63;;;9.10;99.90;;;;;;5047088;28;20080;-46
2023/01/06 05:26:18;;;;;;;13.55;10.68;;;9.00;99.90;;;;;;5048626;28;20600;-45
2023/01/06 05:28:44;;;;;;;14.75;10.35;;;9.10;99.90;;;;;;5048726;28;20053;-48
2023/01/06 05:31:11;;;;;;;13.27;9.73;;;9.10;99.90;;;;;;5048576;28;20052;-46
2023/01/06 05:33:37;;;;;;;12.68;9.30;;;9.10;99.90;;;;;;5048591;28;20099;-46
2023/01/06 05:36:09;;;;;;;11.43;8.85;;;9.10;99.90;;;;;;5048487;28;20049;-46
2023/01/06 05:38:34;;;;;;;9.07;8.10;;;9.10;99.90;;;;;;5048979;28;20072;-47
2023/01/06 05:41:00;;;;;;;9.07;7.15;;;9.10;99.90;;;;;;5030583;28;20506;-45
2023/01/06 05:43:27;;;;;;;10.95;6.95;;;9.10;99.90;;;;;;5048710;28;20689;-46
2023/01/06 05:45:53;;;;;;;11.32;7.30;;;9.20;99.90;;;;;;5048178;28;20047;-45
2023/01/06 05:48:22;;;;;;;10.93;5.65;;;9.20;99.90;;;;;;5048611;28;20049;-45
2023/01/06 05:50:48;;;;;;;8.23;5.07;;;9.30;99.90;;;;;;5048549;28;20361;-45
2023/01/06 05:53:13;;;;;;;7.18;5.22;;;9.20;99.90;;;;;;5046147;28;20085;-46
2023/01/06 05:55:39;;;;;;;8.32;5.10;;;9.20;99.90;;;;;;5048207;28;20056;-46
2023/01/06 05:58:05;;;;;;;7.13;4.90;;;9.20;99.90;;;;;;5048041;28;20514;-47
2023/01/06 06:00:31;;;;;;;7.80;4.32;;;9.40;99.90;;;;;;5047928;28;20041;-47
2023/01/06 06:02:56;;;;;;;6.65;4.90;;;9.30;99.90;;;;;;5048849;28;20041;-46
2023/01/06 06:05:22;;;;;;;11.07;4.85;;;9.20;99.90;;;;;;5048120;28;20071;-46
2023/01/06 06:07:55;;;;;;;7.95;4.30;;;9.20;99.90;;;;;;5047684;28;20043;-46
2023/01/06 06:10:21;;;;;;;7.75;5.38;;;9.20;99.90;;;;;;5048061;28;20050;-45
2023/01/06 06:12:47;;;;;;;9.50;5.03;;;9.20;99.90;;;;;;5047898;28;20091;-46
2023/01/06 06:15:13;;;;;;;6.20;5.57;;;9.30;99.90;;;;;;5047647;28;20041;-47
2023/01/06 06:17:38;;;;;;;8.30;5.50;;;10.20;99.90;;;;;;5045154;28;20542;-46
2023/01/06 06:20:05;;;;;;;8.82;5.75;;;9.30;99.90;;;;;;5047179;28;20055;-46
2023/01/06 06:22:30;;;;;;;9.93;6.55;;;9.20;99.90;;;;;;5047256;28;20076;-45
2023/01/06 06:24:56;;;;;;;9.75;6.47;;;9.30;99.90;;;;;;5047315;28;20558;-45
2023/01/06 06:27:22;;;;;;;10.45;7.10;;;9.40;99.90;;;;;;5046689;28;20041;-46
2023/01/06 06:29:47;;;;;;;10.10;7.38;;;9.20;99.90;;;;;;5047234;28;20063;-45
2023/01/06 06:32:13;;;;;;;10.00;7.03;;;9.10;99.90;;;;;;5047026;28;20119;-45
2023/01/06 06:34:39;;;;;;;9.93;7.20;;;9.10;99.90;;;;;;5046978;28;20114;-45
2023/01/06 06:37:04;;;;;;;10.70;6.88;;;9.00;99.90;;;;;;5047724;28;20102;-46
2023/01/06 06:39:30;;;;;;;10.73;8.23;;;9.00;99.90;;;;;;5047358;28;20098;-45
2023/01/06 06:41:56;;;;;;;9.48;6.55;;;9.00;99.90;;;;;;5047367;28;20037;-45
2023/01/06 06:44:21;;;;;;;10.40;7.10;;;9.00;99.90;;;;;;5047260;28;20041;-45
2023/01/06 06:46:47;;;;;;;13.43;8.02;;;9.00;99.90;;;;;;5047547;28;20051;-47
2023/01/06 06:49:12;;;;;;;13.02;8.05;;;8.90;99.90;;;;;;5045637;28;20045;-45
2023/01/06 06:51:38;;;;;;;8.90;6.63;;;9.10;99.90;;;;;;5047027;28;20076;-46
2023/01/06 06:54:04;;;;;;;10.82;7.20;;;9.10;99.90;;;;;;5047136;28;20045;-44
2023/01/06 06:56:30;;;;;;;9.57;7.32;;;9.00;99.90;;;;;;5047287;28;20044;-45
2023/01/06 06:58:55;;;;;;;14.63;8.15;;;8.90;99.90;;;;;;5047181;28;20044;-46
2023/01/06 07:01:21;;;;;;;11.18;8.23;;;8.90;99.90;;;;;;5047196;28;20048;-45
2023/01/06 07:03:48;;;;;;;11.05;8.35;;;9.00;99.90;;;;;;5046910;28;20395;-47
2023/01/06 07:06:18;;;;;;;12.70;9.00;;;9.30;99.90;;;;;;5046966;28;20489;-45
2023/01/06 07:08:47;;;;;;;14.98;8.57;;;9.00;99.90;;;;;;5047209;28;20076;-46
2023/01/06 07:11:13;;;;;;;15.15;8.48;;;9.00;99.90;;;;;;5047150;28;20050;-46
2023/01/06 07:13:39;;;;;;;15.40;9.15;;;9.10;99.90;;;;;;5045730;28;20052;-45
2023/01/06 07:16:06;;;;;;;14.73;9.20;;;9.00;99.90;;;;;;5047187;28;20044;-45
2023/01/06 07:18:31;;;;;;;13.32;9.38;;;8.90;99.90;;;;;;5047051;28;20040;-48
2023/01/06 07:20:57;;;;;;;16.67;8.88;;;9.00;99.90;;;;;;5046648;28;20045;-46
2023/01/06 07:23:23;;;;;;;13.82;9.27;;;8.90;99.90;;;;;;5046793;28;20049;-46
2023/01/06 07:25:57;;;;;;;13.18;8.82;;;8.80;99.90;;;;;;5046850;28;20103;-45
2023/01/06 07:28:23;;;;;;;15.93;9.52;;;9.00;99.90;;;;;;5045348;28;20076;-45
2023/01/06 07:30:49;;;;;;;15.57;8.25;;;8.90;99.90;;;;;;5046546;28;20360;-46
2023/01/06 07:33:15;;;;;;;13.35;9.27;;;8.90;99.90;;;;;;5046502;28;20107;-46
2023/01/06 07:35:41;;;;;;;12.20;8.23;;;9.00;99.90;;;;;;5046521;28;20040;-45
2023/01/06 07:38:08;;;;;;;11.23;8.07;;;9.00;99.90;;;;;;5046454;28;20051;-47
2023/01/06 07:40:34;;;;;;;14.02;8.38;;;10.50;99.90;;;;;;5046401;28;20045;-46
2023/01/06 07:43:04;;;;;;;17.45;9.55;;;9.00;99.90;;;;;;5046658;28;20047;-46
2023/01/06 07:45:30;;;;;;;15.85;8.38;;;9.00;99.90;;;;;;5045810;28;20052;-46
2023/01/06 07:47:56;;;;;;;13.00;8.30;;;9.00;99.90;;;;;;5046705;28;20083;-46
2023/01/06 07:50:22;;;;;;;15.02;7.80;;;9.00;99.90;;;;;;5046305;28;20049;-47
2023/01/06 07:52:47;;;;;;;12.38;7.78;;;9.10;99.90;;;;;;5046480;28;20099;-46
2023/01/06 07:55:13;;;;;;;10.43;7.35;;;9.10;99.90;;;;;;5044797;28;20052;-46
2023/01/06 07:57:39;;;;;;;11.32;7.00;;;9.10;99.90;;;;;;5046719;28;20056;-46
2023/01/06 08:00:05;;;;;;;13.63;8.23;;;9.10;99.90;;;;;;5045072;28;20072;-45
2023/01/06 08:02:30;;;;;;;10.90;6.95;;;9.10;99.90;;;;;;5046624;28;20119;-47
2023/01/06 08:04:56;;;;;;;9.55;5.70;;;9.10;99.90;;;;;;5046595;28;20116;-46
2023/01/06 08:07:22;;;;;;;9.02;5.40;;;9.40;99.90;;;;;;5046465;28;20119;-46
2023/01/06 08:09:47;;;;;;;11.82;5.90;;;9.20;99.90;;;;;;5044242;28;20073;-47
2023/01/06 08:12:13;;;;;;;15.05;7.65;;;9.10;99.90;;;;;;5046369;28;20045;-48
2023/01/06 08:14:39;;;;;;;10.07;6.30;;;9.30;99.90;;;;;;5046263;28;20052;-48
2023/01/06 08:17:05;;;;;;;8.27;4.85;;;9.20;99.90;;;;;;5045949;28;20045;-46
2023/01/06 08:19:31;;;;;;;5.57;3.05;;;9.10;99.90;;;;;;5046133;28;20045;-46
2023/01/06 08:21:56;;;;;;;5.65;4.20;;;9.40;99.90;;;;;;5046374;28;20697;-46
2023/01/06 08:24:22;;;;;;;5.93;2.67;;;9.20;99.90;;;;;;5045617;28;20037;-46
2023/01/06 08:26:48;;;;;;;6.13;2.70;;;9.10;99.90;;;;;;5046164;28;20037;-46
2023/01/06 08:29:13;;;;;;;4.10;2.00;;;9.00;99.90;;;;;;5045921;28;20147;-45
2023/01/06 08:31:39;;;;;;;12.10;3.63;;;8.90;99.90;;;;;;5045798;28;20041;-47
2023/01/06 08:34:05;;;;;;;6.20;1.77;;;8.70;99.90;;;;;;5046348;28;20092;-50
2023/01/06 08:36:30;;;;;;;5.22;1.75;;;8.50;99.90;;;;;;5045883;28;20807;-46
2023/01/06 08:38:56;;;;;;;4.47;1.00;;;8.80;99.90;;;;;;5045801;28;20059;-46
2023/01/06 08:41:22;;;;;;;8.65;1.13;;;8.20;99.90;;;;;;5048727;28;20658;-47
2023/01/06 08:43:48;;;;;;;3.42;0.90;;;8.20;99.90;;;;;;5048959;28;20045;-45
2023/01/06 08:46:16;;;;;;;3.67;0.80;;;8.10;99.90;;;;;;5049236;28;20090;-46
2023/01/06 08:48:42;;;;;;;5.75;0.60;;;7.90;99.90;;;;;;5049149;28;20052;-46
2023/01/06 08:51:14;;;;;;;8.07;1.00;;;7.90;99.90;;;;;;5048049;28;20752;-46
2023/01/06 08:53:40;;;;;;;6.10;0.60;;;7.80;99.90;;;;;;5049199;28;20074;-47
2023/01/06 08:56:21;;;;;;;5.03;0.70;;;7.70;99.90;;;;;;5049824;28;20044;-45
2023/01/06 08:59:14;;;;;;;4.10;0.50;;;7.60;99.90;;;;;;5049441;28;20051;-46
2023/01/06 09:01:41;;;;;;;4.13;0.80;;;7.60;99.90;;;;;;5021518;28;20057;-48
2023/01/06 09:04:08;;;;;;;4.57;0.50;;;7.60;99.90;;;;;;5043401;28;20124;-48
2023/01/06 09:06:35;;;;;;;4.65;0.80;;;8.40;99.90;;;;;;5046013;28;20094;-47
2023/01/06 09:09:03;;;;;;;2.95;0.73;;;7.50;99.90;;;;;;5047988;28;20051;-51
2023/01/06 09:11:28;;;;;;;3.45;0.50;;;7.40;99.90;;;;;;5045971;28;20048;-49
2023/01/06 09:13:54;;;;;;;3.35;0.45;;;7.40;99.90;;;;;;5047609;28;20064;-47
2023/01/06 09:16:20;;;;;;;6.90;0.60;;;7.30;99.90;;;;;;5047655;28;20454;-46
2023/01/06 09:18:49;;;;;;;4.80;0.80;;;7.50;99.90;;;;;;5047953;28;20049;-53
2023/01/06 09:21:21;;;;;;;4.15;0.50;;;8.00;99.90;;;;;;5047690;28;20136;-45
2023/01/06 09:23:47;;;;;;;6.05;0.50;;;8.10;99.90;;;;;;5048917;28;20162;-46
2023/01/06 09:26:15;;;;;;;4.43;0.40;;;7.40;99.90;;;;;;5048797;28;20394;-46
2023/01/06 09:28:41;;;;;;;7.40;0.65;;;7.40;99.90;;;;;;5048558;28;20049;-47
2023/01/06 09:31:07;;;;;;;7.25;0.77;;;7.30;99.90;;;;;;5048638;28;20850;-47
2023/01/06 09:33:33;;;;;;;5.28;0.52;;;7.30;99.90;;;;;;5048897;28;20044;-46
2023/01/06 09:35:59;;;;;;;8.10;0.57;;;7.40;99.90;;;;;;5048624;28;20171;-45
2023/01/06 09:38:26;;;;;;;7.85;0.63;;;8.10;99.90;;;;;;5049011;28;20052;-46
2023/01/06 09:41:01;;;;;;;4.85;0.38;;;7.50;99.90;;;;;;5048925;28;20052;-46
2023/01/06 09:43:42;;;;;;;8.38;0.52;;;7.50;99.90;;;;;;5048939;28;20462;-46
2023/01/06 09:46:11;;;;;;;9.45;0.40;;;7.50;99.90;;;;;;5048524;28;20047;-46
2023/01/06 09:48:51;;;;;;;7.40;0.50;;;7.50;99.90;;;;;;5048542;28;20345;-46
2023/01/06 09:51:20;;;;;;;4.95;0.80;;;7.40;99.90;;;;;;5047734;28;20411;-47
2023/01/06 09:54:33;;;;;;;9.00;0.70;;;7.70;99.90;;;;;;5048503;28;20049;-46
2023/01/06 09:57:15;;;;;;;9.00;0.63;;;7.50;99.90;;;;;;5025898;28;20423;-45
2023/01/06 09:59:43;;;;;;;;;;;7.50;99.90;;;;;;5025430;28;20065;-46
2023/01/06 10:02:20;;;;;;;7.38;0.65;;;7.50;99.90;;;;;;5040338;28;19927;-47
2023/01/06 10:04:46;;;;;;;8.23;0.60;;;7.40;99.90;;;;;;5048721;28;20459;-46
2023/01/06 10:07:36;;;;;;;12.38;1.65;;;7.50;99.90;;;;;;5049054;28;20045;-46
2023/01/06 10:10:27;;;;;;;9.57;0.77;;;8.30;99.90;;;;;;5049083;28;20041;-46
2023/01/06 10:13:01;;;;;;;11.77;0.70;;;8.40;99.90;;;;;;5048364;28;20052;-46
2023/01/06 10:15:52;;;;;;;16.88;1.13;;;7.60;99.90;;;;;;5048025;28;20069;-46
2023/01/06 10:18:52;;;;;;;8.98;0.95;;;7.60;99.90;;;;;;5048238;28;20073;-45
2023/01/06 10:21:24;;;;;;;10.43;0.65;;;7.60;99.90;;;;;;5039166;28;20045;-46
2023/01/06 10:24:11;;;;;;;12.93;0.70;;;7.70;99.90;;;;;;5048244;28;20041;-46
2023/01/06 10:26:43;;;;;;;9.05;0.57;;;7.70;99.90;;;;;;5047405;28;20282;-46
2023/01/06 10:29:18;;;;;;;8.18;1.98;;;7.70;99.90;;;;;;5048071;28;20044;-46
2023/01/06 10:31:46;;;;;;;7.72;0.40;;;8.30;99.90;;;;;;5047657;28;20045;-49
2023/01/06 10:34:23;;;;;;;7.28;0.30;;;7.50;99.90;;;;;;5047650;28;20037;-49
2023/01/06 10:36:58;;;;;;;9.05;0.50;;;7.70;99.90;;;;;;5047785;28;20044;-51
2023/01/06 10:39:27;;;;;;;4.45;0.75;;;8.00;99.90;;;;;;5046422;28;20103;-49
2023/01/06 10:45:14;;;;;;;12.05;0.60;;;8.10;99.90;;;;;;5047520;28;20590;-49
2023/01/06 10:47:42;;;;;;;8.45;0.57;;;8.30;99.90;;;;;;5047626;28;20056;-48
2023/01/06 10:50:13;;;;;;;6.75;0.63;;;8.90;99.90;;;;;;5047403;28;20047;-49
2023/01/06 10:52:39;;;;;;;9.50;0.50;;;8.50;99.90;;;;;;5047488;28;20041;-49
2023/01/06 10:55:06;;;;;;;11.52;2.40;;;8.40;99.90;;;;;;5047894;28;20041;-49
2023/01/06 10:57:37;;;;;;;6.22;0.30;;;8.40;99.90;;;;;;5047703;28;20045;-49
2023/01/06 11:00:08;;;;;;;9.10;0.40;;;8.30;99.90;;;;;;5047851;28;20049;-48
2023/01/06 11:02:34;;;;;;;12.30;0.70;;;8.20;99.90;;;;;;5047891;28;20132;-49
2023/01/06 11:05:01;;;;;;;7.10;0.35;;;8.20;99.90;;;;;;5047588;28;20129;-48
2023/01/06 11:07:28;;;;;;;7.68;0.40;;;8.30;99.90;;;;;;5047581;28;20041;-48
2023/01/06 11:09:54;;;;;;;6.60;0.40;;;8.30;99.90;;;;;;5047514;28;20645;-48
2023/01/06 11:12:25;;;;;;;10.15;0.52;;;8.20;99.90;;;;;;5047400;28;20045;-52
2023/01/06 11:15:06;;;;;;;7.85;0.50;;;8.30;99.90;;;;;;5079432;28;20105;-49
2023/01/06 11:17:32;;;;;;;5.70;0.52;;;8.30;99.90;;;;;;5047168;28;20052;-48
2023/01/06 11:20:08;;;;;;;8.00;0.75;;;9.10;99.90;;;;;;5047356;28;20041;-48
2023/01/06 11:22:37;;;;;;;5.65;0.30;;;8.30;99.90;;;;;;5047413;28;20037;-51
2023/01/06 11:25:29;;;;;;;9.82;0.35;;;8.40;99.90;;;;;;5046570;28;20049;-49
2023/01/06 11:28:18;;;;;;;4.78;0.30;;;8.40;99.90;;;;;;5046669;28;20510;-44
2023/01/06 11:30:59;;;;;;;5.53;0.63;;;8.30;99.90;;;;;;5046570;28;20052;-51
2023/01/06 11:33:30;;;;;;;10.02;1.23;;;8.30;99.90;;;;;;5046404;28;20063;-49
2023/01/06 11:35:57;;;;;;;14.23;0.67;;;8.40;99.90;;;;;;5045283;28;20080;-45
2023/01/06 11:38:23;;;;;;;5.70;0.30;;;8.10;99.90;;;;;;5033151;28;20311;-48
2023/01/06 11:40:51;;;;;;;6.03;0.52;;;8.20;99.90;;;;;;5061049;28;20032;-49
2023/01/06 11:43:24;;;;;;;11.45;0.63;;;8.00;99.90;;;;;;5064616;28;20110;-48
2023/01/06 11:46:06;;;;;;;8.40;1.27;;;8.00;99.90;;;;;;5064690;28;20378;-48
2023/01/06 11:48:39;;;;;;;;;;;8.00;99.90;;;;;;5065622;28;20048;-48
2023/01/06 11:51:07;;;;;;;6.13;0.80;;;8.00;99.90;;;;;;5064538;28;19955;-49
2023/01/06 11:53:35;;;;;;;10.77;1.00;;;8.10;99.90;;;;;;5064596;28;20119;-50
2023/01/06 11:56:15;;;;;;;10.05;0.80;;;8.60;99.90;;;;;;5064499;28;20080;-49
2023/01/06 11:59:03;;;;;;;6.82;0.98;;;8.20;99.90;;;;;;5064414;28;20044;-45
2023/01/06 12:01:41;;;;;;;8.80;0.70;;;8.20;99.90;;;;;;5064991;28;20125;-48
2023/01/06 12:04:15;;;;;;;10.55;0.82;;;8.20;99.90;;;;;;5063568;28;20059;-48
2023/01/06 12:06:43;;;;;;;10.90;1.10;;;8.40;99.90;;;;;;5046668;28;20063;-46
2023/01/06 12:09:33;;;;;;;11.35;0.95;;;8.20;99.90;;;;;;5064546;28;20053;-49
2023/01/06 12:12:06;;;;;;;14.98;0.73;;;8.40;99.90;;;;;;5046391;28;20110;-46
2023/01/06 12:14:38;;;;;;;10.55;1.00;;;8.10;99.90;;;;;;5064949;28;20413;-46
2023/01/06 12:17:07;;;;;;;5.65;0.35;;;8.20;99.90;;;;;;5068674;28;20493;-45
2023/01/06 12:19:50;;;;;;;5.95;0.43;;;8.20;99.90;;;;;;5068921;28;20046;-47
2023/01/06 12:22:34;;;;;;;;;;;8.20;99.90;;;;;;5069163;28;20088;-45
2023/01/06 12:25:01;;;;;;;8.60;2.15;;;8.30;99.90;;;;;;5068210;28;20345;-51
2023/01/06 12:27:36;;;;;;;12.85;0.80;;;8.30;99.90;;;;;;5051581;28;20398;-48
2023/01/06 12:30:07;;;;;;;7.90;0.88;;;8.20;99.90;;;;;;5069231;28;20106;-49
2023/01/06 12:32:40;;;;;;;11.77;0.67;;;8.20;99.90;;;;;;5069596;28;20048;-48
2023/01/06 12:35:14;;;;;;;9.73;1.05;;;8.20;99.90;;;;;;5068763;28;20036;-49
2023/01/06 12:37:54;;;;;;;7.10;1.05;;;8.10;99.90;;;;;;5040143;28;20164;-45
2023/01/06 12:40:28;;;;;;;11.73;1.88;;;8.10;99.90;;;;;;5010447;28;20128;-47
2023/01/06 12:43:15;;;;;;;12.32;0.70;;;8.10;99.90;;;;;;5046675;28;20140;-46
2023/01/06 12:45:49;;;;;;;8.05;0.55;;;8.10;99.90;;;;;;5048324;28;20571;-46
2023/01/06 12:48:51;;;;;;;9.57;1.33;;;8.30;99.90;;;;;;5047671;28;20141;-46
2023/01/06 12:51:20;;;;;;;12.25;0.93;;;8.10;99.90;;;;;;5048342;28;20159;-46
2023/01/06 12:54:13;;;;;;;9.10;0.60;;;8.10;99.90;;;;;;5047556;28;20045;-48
2023/01/06 12:57:00;;;;;;;6.28;0.93;;;8.30;99.90;;;;;;5047054;28;20048;-49
2023/01/06 12:59:49;;;;;;;10.13;0.65;;;8.10;99.90;;;;;;5047160;28;20080;-48
2023/01/06 13:02:30;;;;;;;7.35;0.68;;;8.10;99.90;;;;;;5038930;28;20102;-45
2023/01/06 13:05:22;;;;;;;8.73;1.55;;;8.10;99.90;;;;;;5049121;28;20098;-46
2023/01/06 13:08:15;;;;;;;12.80;1.35;;;8.20;99.90;;;;;;5048380;28;20091;-45
2023/01/06 13:11:02;;;;;;;11.05;1.38;;;8.20;99.90;;;;;;5048452;28;20048;-47
2023/01/06 13:13:52;;;;;;;9.38;1.35;;;8.20;99.90;;;;;;5049094;28;20033;-46
2023/01/06 13:16:40;;;;;;;8.25;0.82;;;8.20;99.90;;;;;;5048991;28;20378;-45